createdAt,value
2018-07-24T00:00:03.471Z,97101.38
2018-07-24T00:04:58.050Z,97100.36
2018-07-24T00:09:52.652Z,97096.70
2018-07-24T00:14:47.236Z,97097.55
2018-07-24T00:19:41.921Z,97088.09
2018-07-24T00:24:36.619Z,97094.71
2018-07-24T00:29:31.244Z,97095.38
2018-07-24T00:34:25.813Z,97093.06
2018-07-24T00:39:20.440Z,97092.05
2018-07-24T00:44:15.043Z,97081.92
2018-07-24T00:49:09.685Z,97072.27
2018-07-24T00:54:04.387Z,97075.93
2018-07-24T00:58:59.003Z,97071.12
2018-07-24T01:03:53.615Z,97055.00
2018-07-24T01:08:48.244Z,97052.28
2018-07-24T01:13:42.895Z,97051.84
2018-07-24T01:18:37.485Z,97047.88
2018-07-24T01:23:32.107Z,97053.67
2018-07-24T01:28:26.711Z,97045.53
2018-07-24T01:33:21.292Z,97036.18
2018-07-24T01:38:15.896Z,97034.73
2018-07-24T01:43:10.525Z,97036.87
2018-07-24T01:48:05.124Z,97027.66
2018-07-24T01:52:59.715Z,97031.84
2018-07-24T01:57:54.303Z,97024.03
2018-07-24T02:02:48.911Z,97024.55
2018-07-24T02:07:43.852Z,97017.53
2018-07-24T02:12:38.512Z,97025.64
2018-07-24T02:17:33.140Z,97009.08
2018-07-24T02:22:27.757Z,97002.92
2018-07-24T02:27:22.407Z,97000.75
2018-07-24T02:32:17.051Z,97006.67
2018-07-24T02:37:11.665Z,97003.34
2018-07-24T02:42:06.387Z,96996.00
2018-07-24T02:47:00.767Z,96995.73
2018-07-24T02:51:55.382Z,96998.34
2018-07-24T02:56:49.971Z,96995.21
2018-07-24T03:01:44.607Z,96993.55
2018-07-24T03:06:39.219Z,96989.21
2018-07-24T03:11:33.820Z,96985.69
2018-07-24T03:16:28.488Z,96990.84
2018-07-24T03:21:23.126Z,96991.58
2018-07-24T03:26:17.770Z,96988.56
2018-07-24T03:31:12.375Z,96992.27
2018-07-24T03:36:06.975Z,96988.99
2018-07-24T03:41:01.665Z,96986.22
2018-07-24T03:45:56.265Z,96989.64
2018-07-24T03:50:50.915Z,96986.14
2018-07-24T03:55:45.479Z,96988.13
2018-07-24T04:00:41.036Z,96990.39
2018-07-24T04:05:35.685Z,96985.08
2018-07-24T04:10:30.316Z,96984.47
2018-07-24T04:15:24.915Z,96986.41
2018-07-24T04:20:19.519Z,96990.28
2018-07-24T04:25:14.116Z,96979.50
2018-07-24T04:30:08.774Z,96983.23
2018-07-24T04:35:03.437Z,96978.78
2018-07-24T04:39:58.095Z,96972.00
2018-07-24T04:44:52.979Z,96966.61
2018-07-24T04:49:47.585Z,96968.84
2018-07-24T04:54:42.212Z,96963.12
2018-07-24T04:59:36.783Z,96966.36
2018-07-24T05:04:31.440Z,96962.11
2018-07-24T05:09:26.052Z,96964.46
2018-07-24T05:14:20.723Z,96955.80
2018-07-24T05:19:15.324Z,96962.09
2018-07-24T05:24:09.915Z,96963.69
2018-07-24T05:29:04.627Z,96965.36
2018-07-24T05:33:59.296Z,96965.37
2018-07-24T05:38:53.933Z,96965.92
2018-07-24T05:43:48.559Z,96966.17
2018-07-24T05:48:43.249Z,96964.98
2018-07-24T05:53:37.868Z,96962.05
2018-07-24T05:58:32.465Z,96966.09
2018-07-24T06:03:27.107Z,96967.65
2018-07-24T06:08:21.708Z,96965.14
2018-07-24T06:13:16.397Z,96972.22
2018-07-24T06:18:10.968Z,96968.70
2018-07-24T06:23:05.742Z,96965.24
2018-07-24T06:28:00.887Z,96963.97
2018-07-24T06:32:55.503Z,96961.88
2018-07-24T06:37:50.091Z,96969.25
2018-07-24T06:42:44.801Z,96965.77
2018-07-24T06:47:39.498Z,96970.98
2018-07-24T06:52:34.159Z,96961.29
2018-07-24T06:57:28.794Z,96963.29
2018-07-24T07:02:24.414Z,96963.73
2018-07-24T07:07:18.986Z,96966.98
2018-07-24T07:12:13.880Z,96965.84
2018-07-24T07:17:08.512Z,96969.03
2018-07-24T07:22:03.183Z,96953.05
2018-07-24T07:26:57.822Z,96950.94
2018-07-24T07:31:52.424Z,96944.97
2018-07-24T07:36:47.015Z,96943.42
2018-07-24T07:41:41.691Z,96944.30
2018-07-24T07:46:36.314Z,96941.48
2018-07-24T07:51:31.036Z,96941.55
2018-07-24T07:56:25.627Z,96938.89
2018-07-24T08:01:20.290Z,96937.03
2018-07-24T08:06:14.694Z,96939.84
2018-07-24T08:11:09.298Z,96933.72
2018-07-24T08:16:03.986Z,96933.05
2018-07-24T08:20:58.656Z,96928.98
2018-07-24T08:25:53.296Z,96929.04
2018-07-24T08:30:48.064Z,96924.89
2018-07-24T08:35:42.706Z,96928.04
2018-07-24T08:40:37.326Z,96932.13
2018-07-24T08:45:31.923Z,96932.06
2018-07-24T08:50:26.626Z,96932.52
2018-07-24T08:55:21.534Z,96924.88
2018-07-24T09:00:15.833Z,96926.31
2018-07-24T09:05:10.520Z,96920.30
2018-07-24T09:10:05.719Z,96920.73
2018-07-24T09:15:00.283Z,96924.23
2018-07-24T09:19:54.916Z,96914.81
2018-07-24T09:24:49.536Z,96906.58
2018-07-24T09:29:43.787Z,96907.61
2018-07-24T09:34:38.384Z,96905.61
2018-07-24T09:39:32.973Z,96905.20
2018-07-24T09:44:27.556Z,96894.70
2018-07-24T09:49:22.178Z,96892.66
2018-07-24T09:54:16.784Z,96887.02
2018-07-24T09:59:11.401Z,96886.84
2018-07-24T10:04:06.035Z,96876.17
2018-07-24T10:09:00.637Z,96877.99
2018-07-24T10:13:55.551Z,96874.60
2018-07-24T10:18:51.090Z,96868.30
2018-07-24T10:23:45.689Z,96863.84
2018-07-24T10:28:40.347Z,96856.24
2018-07-24T10:33:34.704Z,96858.17
2018-07-24T10:38:29.332Z,96856.64
2018-07-24T10:43:23.948Z,96849.52
2018-07-24T10:48:18.536Z,96847.00
2018-07-24T10:53:13.207Z,96836.09
2018-07-24T10:58:07.812Z,96835.73
2018-07-24T11:03:02.448Z,96835.95
2018-07-24T11:07:57.069Z,96830.79
2018-07-24T11:12:52.679Z,96826.73
2018-07-24T11:17:47.242Z,96822.20
2018-07-24T11:22:42.140Z,96815.32
2018-07-24T11:27:36.635Z,96814.89
2018-07-24T11:32:31.949Z,96815.33
2018-07-24T11:37:26.591Z,96812.92
2018-07-24T11:42:21.199Z,96807.08
2018-07-24T11:47:15.827Z,96804.80
2018-07-24T11:52:10.491Z,96806.56
2018-07-24T11:57:05.116Z,96796.77
2018-07-24T12:01:59.494Z,96800.08
2018-07-24T12:06:54.288Z,96792.95
2018-07-24T12:11:49.044Z,96793.31
2018-07-24T12:16:43.728Z,96788.70
2018-07-24T12:21:38.324Z,96782.12
2018-07-24T12:26:33.012Z,96779.77
2018-07-24T12:31:27.595Z,96773.31
2018-07-24T12:36:22.199Z,96772.39
2018-07-24T12:41:16.812Z,96767.36
2018-07-24T12:46:11.520Z,96768.27
2018-07-24T12:51:05.859Z,96767.09
2018-07-24T12:56:00.506Z,96761.77
2018-07-24T13:00:55.096Z,96752.00
2018-07-24T13:05:49.785Z,96751.78
2018-07-24T13:10:44.402Z,96755.11
2018-07-24T13:15:39.099Z,96748.36
2018-07-24T13:20:33.731Z,96742.60
2018-07-24T13:25:28.315Z,96738.02
2018-07-24T13:30:22.936Z,96741.16
2018-07-24T13:35:18.027Z,96740.93
2018-07-24T13:40:12.788Z,96734.20
2018-07-24T13:45:07.732Z,96727.02
2018-07-24T13:50:02.316Z,96734.81
2018-07-24T13:54:56.903Z,96739.77
2018-07-24T13:59:51.729Z,96732.14
2018-07-24T14:04:46.325Z,96739.50
2018-07-24T14:09:40.977Z,96727.18
2018-07-24T14:14:35.603Z,96722.30
2018-07-24T14:19:30.335Z,96711.09
2018-07-24T14:24:25.024Z,96709.97
2018-07-24T14:29:20.208Z,96709.81
2018-07-24T14:34:14.904Z,96709.14
2018-07-24T14:39:12.253Z,96700.86
2018-07-24T14:44:06.959Z,96701.09
2018-07-24T14:49:01.660Z,96702.47
2018-07-24T14:53:56.287Z,96693.37
2018-07-24T14:58:50.942Z,96685.11
2018-07-24T15:03:45.721Z,96688.93
2018-07-24T15:08:40.315Z,96683.83
2018-07-24T15:13:35.040Z,96677.73
2018-07-24T15:18:29.756Z,96676.39
2018-07-24T15:23:24.397Z,96674.33
2018-07-24T15:28:18.975Z,96673.23
2018-07-24T15:33:13.678Z,96668.66
2018-07-24T15:38:08.462Z,96670.18
2018-07-24T15:43:03.106Z,96665.03
2018-07-24T15:47:57.722Z,96658.83
2018-07-24T15:52:52.350Z,96657.80
2018-07-24T15:57:47.038Z,96657.09
2018-07-24T16:02:41.736Z,96654.92
2018-07-24T16:07:37.184Z,96656.94
2018-07-24T16:12:31.806Z,96654.73
2018-07-24T16:17:26.561Z,96652.72
2018-07-24T16:22:21.143Z,96650.91
2018-07-24T16:27:15.775Z,96655.91
2018-07-24T16:32:10.695Z,96659.50
2018-07-24T16:37:05.397Z,96651.49
2018-07-24T16:41:59.946Z,96658.09
2018-07-24T16:46:54.593Z,96647.28
2018-07-24T16:51:49.287Z,96652.25
2018-07-24T16:56:43.964Z,96652.41
2018-07-24T17:01:38.569Z,96649.51
2018-07-24T17:06:33.185Z,96653.68
2018-07-24T17:11:27.809Z,96650.27
2018-07-24T17:16:22.403Z,96656.12
2018-07-24T17:21:17.012Z,96654.41
2018-07-24T17:26:11.768Z,96655.59
2018-07-24T17:31:06.911Z,96655.95
2018-07-24T17:36:01.558Z,96659.47
2018-07-24T17:40:56.170Z,96662.31
2018-07-24T17:45:50.787Z,96662.13
2018-07-24T17:50:45.312Z,96662.71
2018-07-24T17:55:39.947Z,96669.41
2018-07-24T18:00:34.207Z,96665.66
2018-07-24T18:05:29.105Z,96672.30
2018-07-24T18:10:23.719Z,96678.73
2018-07-24T18:15:18.318Z,96684.86
2018-07-24T18:20:13.171Z,96689.79
2018-07-24T18:25:07.837Z,96680.70
2018-07-24T18:30:05.447Z,96691.80
2018-07-24T18:35:00.029Z,96692.25
2018-07-24T18:39:54.676Z,96697.11
2018-07-24T18:44:49.307Z,96701.95
2018-07-24T18:49:43.906Z,96706.33
2018-07-24T18:54:39.188Z,96702.48
2018-07-24T18:59:33.609Z,96715.42
2018-07-24T19:04:28.254Z,96717.61
2018-07-24T19:09:22.979Z,96725.97
2018-07-24T19:14:17.592Z,96727.15
2018-07-24T19:19:12.235Z,96733.11
2018-07-24T19:24:06.876Z,96736.09
2018-07-24T19:29:01.655Z,96741.84
2018-07-24T19:33:56.291Z,96743.94
2018-07-24T19:38:51.019Z,96744.83
2018-07-24T19:43:45.907Z,96750.03
2018-07-24T19:48:40.486Z,96760.81
2018-07-24T19:53:35.294Z,96760.45
2018-07-24T19:58:30.053Z,96764.90
2018-07-24T20:03:24.656Z,96763.68
2018-07-24T20:08:19.312Z,96773.09
2018-07-24T20:13:13.923Z,96773.31
2018-07-24T20:18:08.668Z,96767.66
2018-07-24T20:23:03.472Z,96772.32
2018-07-24T20:27:58.079Z,96781.77
2018-07-24T20:32:52.786Z,96778.30
2018-07-24T20:37:47.632Z,96784.25
2018-07-24T20:42:42.241Z,96781.12
2018-07-24T20:47:36.849Z,96789.59
2018-07-24T20:52:31.460Z,96788.97
2018-07-24T20:57:26.059Z,96790.10
2018-07-24T21:02:20.765Z,96784.97
2018-07-24T21:07:15.512Z,96792.49
2018-07-24T21:12:10.288Z,96796.16
2018-07-24T21:17:05.009Z,96797.59
2018-07-24T21:21:59.566Z,96804.08
2018-07-24T21:26:54.154Z,96807.27
2018-07-24T21:31:48.790Z,96807.59
2018-07-24T21:36:43.448Z,96813.03
2018-07-24T21:41:38.070Z,96812.21
2018-07-24T21:46:32.806Z,96815.39
2018-07-24T21:51:27.467Z,96817.34
2018-07-24T21:56:22.045Z,96814.66
2018-07-24T22:01:17.375Z,96817.92
2018-07-24T22:06:11.991Z,96821.16
2018-07-24T22:11:06.686Z,96823.22
2018-07-24T22:16:01.238Z,96825.13
2018-07-24T22:20:56.368Z,96821.19
2018-07-24T22:25:50.980Z,96830.98
2018-07-24T22:30:45.595Z,96826.45
2018-07-24T22:35:40.224Z,96832.14
2018-07-24T22:40:34.832Z,96839.86
2018-07-24T22:45:29.460Z,96835.27
2018-07-24T22:50:24.108Z,96840.03
2018-07-24T22:55:18.683Z,96848.63
2018-07-24T23:00:13.307Z,96851.81
2018-07-24T23:05:07.954Z,96843.92
2018-07-24T23:10:02.541Z,96852.69
2018-07-24T23:14:57.116Z,96851.25
2018-07-24T23:19:51.722Z,96852.95
2018-07-24T23:24:46.325Z,96846.98
2018-07-24T23:29:41.140Z,96841.14
2018-07-24T23:34:35.708Z,96841.19
2018-07-24T23:39:30.270Z,96846.23
2018-07-24T23:44:24.886Z,96840.27
2018-07-24T23:49:19.475Z,96837.78
2018-07-24T23:54:14.089Z,96842.42
2018-07-24T23:59:08.716Z,96843.51
